Jack Robertson — WDE5993 — position and weather

sailwx.info

Track history (hours):
 
Tides and Currents Weather Stations Pressure Air Temp Water Temp Dewpoint Dewpoint Depression Visibility Wind Speed Wind Dir Waves Ship Positions

Oceanographic research ship Jack Robertson (United States)

Owner: University of Washington Applied Physics Laboratory, Seattle, WA. More information available from US FCC via Universal Licensing System and Coast Guard Vessel Documentation Center.

Last reported at 2017-Nov-17 23:00 UTC. Time now 2017-Dec-13 12:58 UTC.
Position N 47°39' W 122°19'.
Warning: this ship's position is 25 days out of date.

; draft 1.7 m.

Type: Other ship. MMSI: 367374350.

Date/timePositionNaut miles runAvg speedWind from/ knotsBaromVisibWave heightAir tempDewpointWater temp
2017-Nov-17 23:00N 47°39' W 122°19'2 4.5
2017-Nov-17 22:30N 47°40' W 122°22'1 2.4
2017-Nov-17 22:00N 47°40' W 122°24'2 3.5
2017-Nov-17 21:30N 47°40' W 122°27'4 8.6
2017-Nov-17 21:00N 47°36' W 122°28'4 8.9
2017-Nov-17 20:30N 47°32' W 122°28'5 9.2
2017-Nov-17 20:01N 47°27' W 122°31'5 9.2
2017-Nov-17 19:30N 47°23' W 122°32'5 9.3
2017-Nov-17 19:00N 47°18' W 122°33'3 6.0
2017-Nov-17 18:30N 47°15' W 122°34'2 3.2
2017-Nov-17 18:01N 47°17' W 122°33'0 0.3
2017-Nov-17 17:30N 47°17' W 122°33'  
2017-Nov-14 22:14N 47°15' W 122°33'1 6.2
2017-Nov-14 22:00N 47°17' W 122°33'0 0.2
2017-Nov-14 21:30N 47°17' W 122°33'2 3.2
2017-Nov-14 20:54N 47°15' W 122°34'1 1.3
2017-Nov-14 20:30N 47°14' W 122°34'0 0.2
2017-Nov-14 20:00N 47°14' W 122°34'3 5.0
2017-Nov-14 19:30N 47°17' W 122°33'4 7.6
2017-Nov-14 19:00N 47°20' W 122°33'4 7.4
2017-Nov-14 18:30N 47°24' W 122°32'4 7.8
2017-Nov-14 18:01N 47°28' W 122°31'4 7.6
2017-Nov-14 17:31N 47°31' W 122°29'4 7.6
2017-Nov-14 17:01N 47°35' W 122°28'4 7.2
2017-Nov-14 16:31N 47°39' W 122°28'3 5.6
2017-Nov-14 16:00N 47°40' W 122°24'1 1.2
2017-Nov-14 15:31N 47°40' W 122°24'3 5.7
2017-Nov-14 15:01N 47°39' W 122°20'0 0.4
2017-Nov-14 14:26N 47°39' W 122°19'0 0.1
2017-Nov-14 14:01N 47°39' W 122°19'  
Track history (hours):
 
Tides and Currents Weather Stations Pressure Air Temp Water Temp Dewpoint Dewpoint Depression Visibility Wind Speed Wind Dir Waves Ship Positions

Oceanographic research ship Jack Robertson (United States)

Owner: University of Washington Applied Physics Laboratory, Seattle, WA. More information available from US FCC via Universal Licensing System and Coast Guard Vessel Documentation Center.

Last reported at 2017-Nov-17 23:00 UTC. Time now 2017-Dec-13 12:58 UTC.
Position N 47°39' W 122°19'.
Warning: this ship's position is 25 days out of date.

; draft 1.7 m.

Type: Other ship. MMSI: 367374350.

Date/timePositionNaut miles runAvg speedWind from/ knotsBaromVisibWave heightAir tempDewpointWater temp
2017-Nov-17 23:00N 47°39' W 122°19'2 4.5
2017-Nov-17 22:30N 47°40' W 122°22'1 2.4
2017-Nov-17 22:00N 47°40' W 122°24'2 3.5
2017-Nov-17 21:30N 47°40' W 122°27'4 8.6
2017-Nov-17 21:00N 47°36' W 122°28'4 8.9
2017-Nov-17 20:30N 47°32' W 122°28'5 9.2
2017-Nov-17 20:01N 47°27' W 122°31'5 9.2
2017-Nov-17 19:30N 47°23' W 122°32'5 9.3
2017-Nov-17 19:00N 47°18' W 122°33'3 6.0
2017-Nov-17 18:30N 47°15' W 122°34'2 3.2
2017-Nov-17 18:01N 47°17' W 122°33'0 0.3
2017-Nov-17 17:30N 47°17' W 122°33'  
2017-Nov-14 22:14N 47°15' W 122°33'1 6.2
2017-Nov-14 22:00N 47°17' W 122°33'0 0.2
2017-Nov-14 21:30N 47°17' W 122°33'2 3.2
2017-Nov-14 20:54N 47°15' W 122°34'1 1.3
2017-Nov-14 20:30N 47°14' W 122°34'0 0.2
2017-Nov-14 20:00N 47°14' W 122°34'3 5.0
2017-Nov-14 19:30N 47°17' W 122°33'4 7.6
2017-Nov-14 19:00N 47°20' W 122°33'4 7.4
2017-Nov-14 18:30N 47°24' W 122°32'4 7.8
2017-Nov-14 18:01N 47°28' W 122°31'4 7.6
2017-Nov-14 17:31N 47°31' W 122°29'4 7.6
2017-Nov-14 17:01N 47°35' W 122°28'4 7.2
2017-Nov-14 16:31N 47°39' W 122°28'3 5.6
2017-Nov-14 16:00N 47°40' W 122°24'1 1.2
2017-Nov-14 15:31N 47°40' W 122°24'3 5.7
2017-Nov-14 15:01N 47°39' W 122°20'0 0.4
2017-Nov-14 14:26N 47°39' W 122°19'0 0.1
2017-Nov-14 14:01N 47°39' W 122°19'  

Dump ship's entire track history